CST,Max TemperatureF,Mean TemperatureF,Min TemperatureF,Max Dew PointF,MeanDew PointF,Min DewpointF,Max Humidity, Mean Humidity, Min Humidity, Max Sea Level PressureIn, Mean Sea Level PressureIn, Min Sea Level PressureIn, Max VisibilityMiles, Mean VisibilityMiles, Min VisibilityMiles, Max Wind SpeedMPH, Mean Wind SpeedMPH, Max Gust SpeedMPH,PrecipitationIn, CloudCover, Events, WindDirDegrees
2011-11-1,73,58,43,44,39,35,86,55,26,30.24,30.19,30.16,10,10,10,13,6,22,0.00,0,,58
2011-11-2,75,60,46,54,45,37,83,62,40,30.27,30.19,30.14,10,10,10,15,8,,0.00,0,,107
2011-11-3,78,62,46,67,54,39,94,82,60,30.12,30.02,29.89,10,10,6,22,10,34,0.03,5,Rain,271
2011-11-4,64,52,39,44,41,37,93,73,46,30.08,30.03,29.98,10,10,10,18,7,28,0.00,2,,329
2011-11-5,72,58,46,44,38,32,90,55,26,30.18,30.11,30.07,10,10,10,15,8,23,0.00,0,,57
2011-11-6,73,60,48,54,47,35,84,64,53,30.27,30.21,30.17,10,10,10,16,9,21,0.00,2,,70
2011-11-7,78,64,50,58,55,49,96,71,45,30.25,30.18,30.12,10,10,10,12,8,,0.00,3,,86
2011-11-8,80,68,55,59,55,53,93,69,39,30.14,30.07,30.02,10,10,10,16,7,23,0.00,1,,115
2011-11-9,75,64,53,66,59,54,100,89,65,30.08,30.04,29.94,10,7,0,16,4,24,0.20,5,Fog-Rain,15
2011-11-10,57,52,46,52,37,27,89,60,36,30.21,30.09,30.00,10,10,10,21,14,30,0.00,1,,339
2011-11-11,,,,,,,,,,30.31,30.25,30.21,,,,,,,0.00,,,-1
2011-11-12,,,,,,,,,,30.32,30.25,30.19,,,,,,,0.00,,,-1
2011-11-13,72,69,66,63,63,62,87,82,73,30.20,30.14,30.09,10,10,10,12,10,,0.00,5,,142
2011-11-14,79,71,63,68,66,61,96,84,65,30.11,30.03,29.96,10,10,9,16,8,23,0.00,7,Rain,152
2011-11-15,78,73,68,72,70,66,100,91,74,30.01,29.92,29.86,10,9,3,17,6,22,0.37,8,Rain,167
2011-11-16,79,74,66,73,69,62,96,87,60,29.91,29.85,29.78,10,9,2,21,7,32,0.35,7,Rain-Thunderstorm,211
2011-11-17,68,56,44,65,41,26,96,57,28,30.27,30.14,29.91,10,10,2,22,14,29,0.11,0,,350
2011-11-18,64,50,37,50,38,26,75,60,47,30.31,30.24,30.18,10,10,10,13,8,,0.00,1,,83
2011-11-19,70,62,53,63,57,47,94,82,70,30.21,30.17,30.12,10,10,10,14,8,,0.01,7,,106
2011-11-20,77,70,62,68,65,61,100,88,65,30.28,30.21,30.15,10,7,0,10,5,,0.00,4,Fog,135
2011-11-21,80,70,59,68,63,57,100,90,61,30.25,30.17,30.07,10,4,0,9,4,,0.01,2,Fog,138
2011-11-22,78,70,62,72,68,61,100,93,76,30.11,30.03,29.95,10,7,0,16,5,29,0.05,7,Fog-Rain-Thunderstorm,161
2011-11-23,72,62,52,70,57,46,100,79,49,30.18,30.08,29.98,10,10,5,15,7,21,0.16,4,Rain,343
2011-11-24,69,56,42,46,42,38,89,65,36,30.29,30.23,30.16,10,10,10,13,8,,0.00,0,,44
2011-11-25,73,60,46,52,47,38,83,67,48,30.27,30.20,30.12,10,10,10,14,9,20,0.00,1,,107
2011-11-26,75,68,60,64,58,52,87,71,52,30.14,30.06,29.97,10,10,10,20,11,29,0.00,3,,125
2011-11-27,70,60,50,67,61,48,100,93,84,29.96,29.89,29.81,10,9,1,17,8,25,0.50,8,Rain,255
2011-11-28,50,44,37,46,40,35,100,82,61,29.96,29.91,29.86,10,10,4,12,7,21,0.01,7,Rain,291
2011-11-29,57,46,34,37,35,30,93,69,40,30.10,29.99,29.92,10,10,10,20,6,28,0.00,4,,318
2011-11-30,53,42,30,36,34,29,96,72,50,30.19,30.13,30.07,10,10,10,16,9,21,0.00,2,,347